Terminal Aerodrome Forecast
Issued by NWS Shreveport, LA

Home | Current Version | Previous Version | Text Only | Print | Product List | Glossary On
Versions: 1 2 3 4 5 6 7 8 9 10 11 12 13 14 15 16 17 18 19 20 21 22 23
323
FTUS44 KSHV 290525
TAFLFK
TAF
KLFK 290525Z 2906/3006 00000KT 6SM BR SCT180 BKN250
      TEMPO 2908/2912 2SM BR BKN002
     FM291200 19005KT 2SM BR SCT005 SCT250
      TEMPO 2912/2915 P6SM NSW BKN005
     FM291500 23006KT P6SM SCT020 SCT250
     FM291700 23007KT P6SM SCT040 SCT250
     FM300000 17005KT P6SM FEW060 SCT250=

USA.gov is the U.S. government's official web portal to all federal, state and local government web resources and services.